Time;durP1;ratioP1;P1;durP2;ratioP2;P2;SDS_P1;SDS_P2;PMS_P1;PMS_P2;Temp;Humidity;BMP_temperature;BMP_pressure;BME280_temperature;BME280_humidity;BME280_pressure;Samples;Min_cycle;Max_cycle;Signal;HPM_P1;HPM_P2
2022/06/17 00:02:12;;;;;;;7.25;3.00;;;18.80;99.90;;;;;;5054101;28;20389;-56
2022/06/17 00:04:38;;;;;;;8.20;3.50;;;18.80;99.90;;;;;;5048309;28;20397;-55
2022/06/17 00:07:11;;;;;;;6.70;3.30;;;18.80;99.90;;;;;;5049064;28;20917;-54
2022/06/17 00:09:37;;;;;;;7.80;3.22;;;18.80;99.90;;;;;;5045636;28;20385;-54
2022/06/17 00:12:06;;;;;;;7.05;3.17;;;18.70;99.90;;;;;;5049157;28;20381;-54
2022/06/17 00:15:11;;;;;;;7.28;3.53;;;18.50;99.90;;;;;;5045589;28;20382;-54
2022/06/17 00:17:20;;;;;;;8.27;3.47;;;18.50;99.90;;;;;;5045096;28;20761;-54
2022/06/17 00:19:45;;;;;;;6.68;3.25;;;18.40;99.90;;;;;;5047525;28;20488;-54
2022/06/17 00:22:11;;;;;;;9.97;3.63;;;18.40;99.90;;;;;;5049054;28;20465;-54
2022/06/17 00:24:37;;;;;;;8.00;3.53;;;18.20;99.90;;;;;;5047828;28;20409;-54
2022/06/17 00:27:03;;;;;;;7.50;3.08;;;18.20;99.90;;;;;;5048476;28;20940;-54
2022/06/17 00:29:30;;;;;;;8.03;3.40;;;18.10;99.90;;;;;;5047764;28;20420;-54
2022/06/17 00:31:56;;;;;;;6.88;3.40;;;18.00;99.90;;;;;;5048810;28;20784;-54
2022/06/17 00:34:23;;;;;;;8.98;3.30;;;17.90;99.90;;;;;;5048749;28;20416;-54
2022/06/17 00:36:59;;;;;;;7.40;3.70;;;17.20;99.90;;;;;;5048003;28;20439;-54
2022/06/17 00:39:27;;;;;;;7.28;3.35;;;17.70;99.90;;;;;;5048202;28;20820;-55
2022/06/17 00:41:58;;;;;;;8.20;3.67;;;17.60;99.90;;;;;;5046905;28;20402;-55
2022/06/17 00:44:48;;;;;;;7.63;3.60;;;17.60;99.90;;;;;;5048547;28;20484;-56
2022/06/17 00:47:42;;;;;;;6.95;3.42;;;17.50;99.90;;;;;;5046245;28;20996;-55
2022/06/17 00:50:39;;;;;;;9.60;3.70;;;17.50;99.90;;;;;;5048894;28;20388;-55
2022/06/17 00:53:24;;;;;;;7.72;3.47;;;17.50;99.90;;;;;;5048121;28;20537;-55
2022/06/17 00:55:52;;;;;;;7.80;3.33;;;17.50;99.90;;;;;;5048023;28;20477;-55
2022/06/17 00:58:29;;;;;;;7.00;3.35;;;17.60;99.90;;;;;;5045822;28;20433;-55
2022/06/17 01:00:58;;;;;;;7.10;3.33;;;17.50;99.90;;;;;;5047857;28;20437;-55
2022/06/17 01:03:36;;;;;;;8.40;3.65;;;17.50;99.90;;;;;;5048526;28;20377;-56
2022/06/17 01:06:10;;;;;;;8.00;3.90;;;17.30;99.90;;;;;;5046962;28;20394;-55
2022/06/17 01:11:32;;;;;;;8.35;3.75;;;17.10;99.90;;;;;;5047648;28;20396;-56
2022/06/17 01:13:59;;;;;;;7.40;3.40;;;17.10;99.90;;;;;;5048317;28;20930;-55
2022/06/17 01:16:36;;;;;;;6.85;3.33;;;17.10;99.90;;;;;;5047605;28;20486;-56
2022/06/17 01:19:22;;;;;;;8.13;3.13;;;17.10;99.90;;;;;;5046229;28;20452;-55
2022/06/17 01:21:51;;;;;;;8.07;3.90;;;17.10;99.90;;;;;;5048163;28;20392;-55
2022/06/17 01:24:18;;;;;;;7.88;3.60;;;17.00;99.90;;;;;;5047099;28;20948;-55
2022/06/17 01:26:43;;;;;;;8.18;3.60;;;17.00;99.90;;;;;;5047436;28;20459;-55
2022/06/17 01:29:13;;;;;;;7.78;3.50;;;17.00;99.90;;;;;;5048096;28;20866;-55
2022/06/17 01:31:43;;;;;;;9.07;3.60;;;17.10;99.90;;;;;;5045647;28;20443;-54
2022/06/17 01:34:11;;;;;;;7.00;3.78;;;17.10;99.90;;;;;;5048274;28;20915;-55
2022/06/17 01:36:37;;;;;;;7.38;3.30;;;16.90;99.90;;;;;;5047594;28;20400;-55
2022/06/17 01:39:03;;;;;;;8.50;3.30;;;16.90;99.90;;;;;;5047852;28;20401;-55
2022/06/17 01:41:31;;;;;;;7.40;3.10;;;16.90;99.90;;;;;;5040194;28;20406;-56
2022/06/17 01:44:04;;;;;;;6.97;3.38;;;16.80;99.90;;;;;;5048343;28;20941;-55
2022/06/17 01:46:35;;;;;;;8.90;3.90;;;16.80;99.90;;;;;;5048404;28;20408;-55
2022/06/17 01:49:06;;;;;;;7.47;3.45;;;16.70;99.90;;;;;;5052299;28;20386;-55
2022/06/17 01:51:34;;;;;;;7.28;3.25;;;16.60;99.90;;;;;;5049526;28;20523;-55
2022/06/17 01:54:11;;;;;;;11.10;3.30;;;16.40;99.90;;;;;;5048442;28;20404;-55
2022/06/17 01:56:39;;;;;;;8.60;3.20;;;16.40;99.90;;;;;;5049349;28;20393;-55
2022/06/17 01:59:10;;;;;;;7.45;3.58;;;16.40;99.90;;;;;;5051847;28;20488;-55
2022/06/17 02:01:40;;;;;;;6.78;3.30;;;16.40;99.90;;;;;;5046904;28;20924;-55
2022/06/17 02:04:11;;;;;;;10.75;4.20;;;16.50;99.90;;;;;;5051763;28;20524;-54
2022/06/17 02:07:00;;;;;;;8.50;3.60;;;16.40;99.90;;;;;;5051398;28;20885;-54
2022/06/17 02:09:26;;;;;;;8.57;3.73;;;16.40;99.90;;;;;;5051328;28;20390;-56
2022/06/17 02:11:53;;;;;;;7.82;4.13;;;16.30;99.90;;;;;;5047779;28;21117;-58
2022/06/17 02:14:19;;;;;;;12.90;4.95;;;16.20;99.90;;;;;;5033476;28;20980;-61
2022/06/17 02:16:50;;;;;;;8.30;3.60;;;16.00;99.90;;;;;;5051007;28;20389;-61
2022/06/17 02:19:16;;;;;;;7.00;3.20;;;15.90;99.90;;;;;;5049159;28;20413;-59
2022/06/17 02:21:50;;;;;;;7.80;4.30;;;15.80;99.90;;;;;;5051449;28;20935;-60
2022/06/17 02:24:18;;;;;;;7.38;3.80;;;15.80;99.90;;;;;;5049436;28;20409;-60
2022/06/17 02:26:45;;;;;;;7.80;3.70;;;15.90;1.00;;;;;;5050663;28;20393;-58
2022/06/17 02:29:12;;;;;;;6.95;3.50;;;15.80;1.00;;;;;;5050753;28;20392;-55
2022/06/17 02:31:41;;;;;;;7.70;3.90;;;15.80;1.00;;;;;;5050804;28;20389;-55
2022/06/17 02:34:10;;;;;;;9.15;4.00;;;15.90;1.00;;;;;;5050792;28;20494;-55
2022/06/17 02:36:48;;;;;;;9.20;3.78;;;15.80;1.00;;;;;;5032486;28;20390;-54
2022/06/17 02:39:15;;;;;;;8.40;3.90;;;15.90;1.00;;;;;;5049376;28;20496;-55
2022/06/17 02:41:42;;;;;;;9.10;3.80;;;15.90;1.00;;;;;;5050304;28;20393;-55
2022/06/17 02:44:31;;;;;;;8.70;4.10;;;15.90;99.90;;;;;;5048339;28;20413;-63
2022/06/17 02:47:00;;;;;;;9.10;3.70;;;15.80;1.00;;;;;;5050838;28;20451;-63
2022/06/17 02:49:30;;;;;;;7.20;3.77;;;15.70;1.00;;;;;;5050570;28;20389;-58
2022/06/17 02:51:57;;;;;;;7.23;3.60;;;15.70;1.00;;;;;;5049347;28;20953;-55
2022/06/17 02:54:35;;;;;;;7.93;3.53;;;15.70;1.00;;;;;;5050506;28;20489;-54
2022/06/17 02:57:03;;;;;;;7.50;3.50;;;15.70;1.00;;;;;;5049287;28;20404;-54
2022/06/17 02:59:40;;;;;;;8.15;3.70;;;15.70;1.00;;;;;;5050268;28;20421;-57
2022/06/17 03:02:29;;;;;;;7.18;3.60;;;15.70;1.00;;;;;;5051117;28;20398;-54
2022/06/17 03:04:56;;;;;;;7.50;3.55;;;15.60;1.00;;;;;;5048321;28;20398;-55
2022/06/17 03:07:25;;;;;;;8.27;4.13;;;15.60;1.00;;;;;;5049281;28;20492;-54
2022/06/17 03:09:51;;;;;;;8.80;3.97;;;15.60;1.00;;;;;;5049816;28;20382;-55
2022/06/17 03:12:21;;;;;;;9.23;4.10;;;15.50;1.00;;;;;;5050209;28;20393;-55
2022/06/17 03:15:08;;;;;;;8.20;3.90;;;15.50;1.00;;;;;;5048512;28;20396;-54
2022/06/17 03:17:39;;;;;;;9.00;4.10;;;15.40;1.00;;;;;;5045968;28;20403;-55
2022/06/17 03:20:11;;;;;;;10.05;4.03;;;15.40;1.00;;;;;;5050543;28;20393;-54
2022/06/17 03:22:38;;;;;;;7.40;3.55;;;15.30;1.00;;;;;;5049443;28;20422;-55
2022/06/17 03:25:19;;;;;;;13.40;3.97;;;15.40;1.00;;;;;;5050298;28;20397;-55
2022/06/17 03:27:48;;;;;;;11.50;3.90;;;15.40;1.00;;;;;;5049044;28;20818;-55
2022/06/17 03:30:22;;;;;;;10.90;3.90;;;15.30;71.90;;;;;;5050417;28;20397;-54
2022/06/17 03:32:56;;;;;;;8.63;3.90;;;15.40;13.20;;;;;;5047966;28;20385;-55
2022/06/17 03:35:25;;;;;;;7.85;3.90;;;15.30;1.00;;;;;;5048635;28;20381;-54
2022/06/17 03:38:23;;;;;;;12.23;4.50;;;15.30;3.90;;;;;;5048966;28;20479;-55
2022/06/17 03:41:00;;;;;;;8.40;4.10;;;15.30;38.30;;;;;;5048533;28;20401;-55
2022/06/17 03:43:36;;;;;;;8.52;4.10;;;15.40;48.70;;;;;;5049408;28;20408;-55
2022/06/17 03:46:06;;;;;;;8.82;4.32;;;15.50;1.00;;;;;;5048668;28;20473;-55
2022/06/17 03:48:42;;;;;;;8.43;4.35;;;15.50;24.60;;;;;;5046009;28;20463;-55
2022/06/17 03:51:15;;;;;;;9.52;4.10;;;15.50;1.00;;;;;;5049782;28;20369;-54
2022/06/17 03:53:42;;;;;;;8.65;4.05;;;15.60;1.00;;;;;;5049196;28;20413;-55
2022/06/17 03:56:16;;;;;;;10.63;4.22;;;15.60;1.00;;;;;;5049488;28;20448;-54
2022/06/17 03:58:43;;;;;;;8.23;4.10;;;15.70;1.00;;;;;;5047328;28;20443;-55
2022/06/17 04:01:25;;;;;;;7.82;4.03;;;15.70;1.00;;;;;;5048635;28;20454;-55
2022/06/17 04:03:56;;;;;;;8.23;3.90;;;15.90;1.00;;;;;;5047355;28;20390;-55
2022/06/17 04:06:27;;;;;;;8.43;3.92;;;15.90;1.00;;;;;;5030951;28;20389;-54
2022/06/17 04:09:14;;;;;;;10.65;4.10;;;16.00;1.00;;;;;;5045935;28;20394;-55
2022/06/17 04:11:42;;;;;;;8.73;3.75;;;16.10;1.00;;;;;;5048040;28;20393;-59
2022/06/17 04:14:18;;;;;;;8.40;4.10;;;16.10;1.00;;;;;;5049311;28;20477;-55
2022/06/17 04:16:54;;;;;;;7.40;3.97;;;16.20;1.00;;;;;;5048068;28;20839;-55
2022/06/17 04:19:26;;;;;;;7.00;3.70;;;16.20;1.00;;;;;;5048928;28;20455;-54
2022/06/17 04:21:56;;;;;;;8.20;3.90;;;16.30;1.00;;;;;;5048171;28;20480;-55
2022/06/17 04:24:25;;;;;;;7.90;3.70;;;16.30;1.00;;;;;;5048998;28;20448;-55
2022/06/17 04:26:54;;;;;;;9.43;4.10;;;16.30;1.00;;;;;;5047945;28;20688;-54
2022/06/17 04:29:34;;;;;;;9.38;4.30;;;16.40;1.00;;;;;;5031012;28;20452;-55
2022/06/17 04:32:25;;;;;;;9.00;4.50;;;16.60;1.00;;;;;;5047268;28;20397;-54
2022/06/17 04:34:50;;;;;;;14.07;6.65;;;16.70;1.00;;;;;;5047746;28;20393;-55
2022/06/17 04:37:20;;;;;;;14.50;6.77;;;16.80;1.00;;;;;;5048866;28;20373;-55
2022/06/17 04:39:58;;;;;;;10.40;4.90;;;16.90;1.00;;;;;;5045678;28;20394;-55
2022/06/17 04:42:35;;;;;;;8.25;4.18;;;16.90;1.00;;;;;;5048062;28;20389;-55
2022/06/17 04:45:02;;;;;;;12.57;6.10;;;17.00;1.00;;;;;;5047434;28;20405;-55
2022/06/17 04:47:29;;;;;;;8.80;3.80;;;17.20;1.00;;;;;;5047807;28;20484;-55
2022/06/17 04:50:16;;;;;;;8.23;3.80;;;17.20;99.90;;;;;;5028005;28;20408;-55
2022/06/17 04:52:45;;;;;;;7.35;3.65;;;17.30;99.90;;;;;;5048055;28;20423;-55
2022/06/17 04:55:24;;;;;;;9.03;3.97;;;17.50;99.90;;;;;;5048553;28;20456;-52
2022/06/17 04:57:50;;;;;;;10.10;4.10;;;18.20;99.90;;;;;;5047674;28;20488;-52
2022/06/17 05:00:22;;;;;;;8.00;3.80;;;19.10;99.90;;;;;;5045610;28;20490;-55
2022/06/17 05:02:48;;;;;;;8.95;3.67;;;20.10;99.90;;;;;;5047781;28;20394;-55
2022/06/17 05:05:26;;;;;;;6.80;3.10;;;20.80;99.90;;;;;;5048788;28;20386;-55
2022/06/17 05:07:53;;;;;;;7.70;3.45;;;22.00;99.90;;;;;;5047826;28;20397;-53
2022/06/17 05:10:24;;;;;;;6.93;3.40;;;23.50;99.90;;;;;;5048623;28;20409;-55
2022/06/17 05:13:02;;;;;;;10.05;3.80;;;24.50;99.90;;;;;;5045119;28;20630;-56
2022/06/17 05:15:29;;;;;;;8.32;3.40;;;24.90;99.90;;;;;;5048067;28;20401;-56
2022/06/17 05:17:56;;;;;;;7.97;3.40;;;25.20;99.90;;;;;;5048110;28;20413;-56
2022/06/17 05:20:23;;;;;;;8.20;3.80;;;25.60;99.90;;;;;;5030498;28;20793;-56
2022/06/17 05:22:59;;;;;;;6.93;3.20;;;25.50;99.90;;;;;;5050841;28;20470;-56
2022/06/17 05:25:31;;;;;;;6.50;2.90;;;26.30;99.90;;;;;;5052659;28;20401;-56
2022/06/17 05:27:56;;;;;;;6.70;2.70;;;27.40;99.90;;;;;;5050055;28;20851;-54
2022/06/17 05:30:23;;;;;;;8.90;4.13;;;28.90;99.90;;;;;;5052371;28;20384;-54
2022/06/17 05:32:51;;;;;;;7.10;3.75;;;30.10;99.90;;;;;;5051489;28;20487;-54
2022/06/17 05:35:18;;;;;;;9.00;4.53;;;31.20;99.90;;;;;;5052117;28;20395;-54
2022/06/17 05:37:44;;;;;;;7.90;4.90;;;30.80;99.90;;;;;;5051256;28;20496;-54
2022/06/17 05:40:10;;;;;;;8.60;4.80;;;30.50;99.90;;;;;;5051817;28;20812;-54
2022/06/17 05:42:37;;;;;;;9.27;5.10;;;30.10;99.90;;;;;;5049195;28;20381;-54
2022/06/17 05:45:04;;;;;;;8.70;4.82;;;30.50;99.90;;;;;;5051505;28;20400;-54
2022/06/17 05:47:29;;;;;;;7.15;3.00;;;30.90;99.90;;;;;;5051171;28;20416;-55
2022/06/17 05:49:55;;;;;;;7.53;3.20;;;31.70;99.90;;;;;;5051080;28;20886;-54
2022/06/17 05:52:21;;;;;;;9.32;3.40;;;31.50;99.90;;;;;;5052181;28;20401;-54
2022/06/17 05:54:46;;;;;;;7.40;3.30;;;31.10;99.90;;;;;;5050224;28;20555;-54
2022/06/17 05:57:12;;;;;;;8.20;5.20;;;30.60;99.90;;;;;;5051814;28;20884;-54
2022/06/17 05:59:38;;;;;;;9.20;3.60;;;30.10;99.90;;;;;;5050683;28;20397;-54
2022/06/17 06:02:04;;;;;;;8.73;3.10;;;31.20;99.90;;;;;;5051405;28;20428;-54
2022/06/17 06:04:31;;;;;;;7.90;3.13;;;31.60;99.90;;;;;;5044120;28;20409;-55
2022/06/17 06:06:57;;;;;;;7.22;4.40;;;31.10;99.90;;;;;;5049451;28;20475;-56
2022/06/17 06:09:23;;;;;;;9.73;6.07;;;30.90;99.90;;;;;;5051956;28;20393;-54
2022/06/17 06:11:49;;;;;;;7.32;5.30;;;30.60;99.90;;;;;;5032154;28;20417;-56
2022/06/17 06:14:15;;;;;;;7.50;4.70;;;30.70;99.90;;;;;;5050851;28;20871;-54
2022/06/17 06:16:40;;;;;;;10.65;3.42;;;31.00;99.90;;;;;;5050969;28;20380;-54
2022/06/17 06:19:06;;;;;;;11.27;3.50;;;31.70;99.90;;;;;;5051769;28;20409;-57
2022/06/17 06:21:32;;;;;;;7.70;2.90;;;32.10;99.90;;;;;;5033393;28;20413;-57
2022/06/17 06:23:57;;;;;;;7.55;2.80;;;32.50;99.90;;;;;;5051922;28;20459;-63
2022/06/17 06:26:24;;;;;;;6.47;2.70;;;32.90;99.90;;;;;;5052184;28;20743;-57
2022/06/17 06:28:50;;;;;;;7.03;2.97;;;33.40;99.90;;;;;;5051368;28;20508;-57
2022/06/17 06:31:34;;;;;;;7.60;3.00;;;33.10;99.90;;;;;;5051617;28;20480;-57
2022/06/17 06:34:00;;;;;;;9.50;2.88;;;33.00;99.90;;;;;;5047095;28;20405;-57
2022/06/17 06:36:26;;;;;;;9.03;3.00;;;32.30;99.90;;;;;;5040567;28;21160;-57
2022/06/17 06:38:51;;;;;;;8.87;3.10;;;32.00;99.90;;;;;;5039273;28;20864;-56
2022/06/17 06:41:21;;;;;;;12.00;5.00;;;32.30;99.90;;;;;;5048502;28;20418;-57
2022/06/17 06:43:47;;;;;;;8.10;3.17;;;33.30;99.90;;;;;;5052149;28;20759;-56
2022/06/17 06:46:16;;;;;;;6.93;3.10;;;33.80;99.90;;;;;;5048319;28;20389;-57
2022/06/17 06:48:42;;;;;;;7.43;3.60;;;33.30;99.90;;;;;;5050928;28;20400;-57
2022/06/17 06:51:07;;;;;;;9.70;5.17;;;33.70;99.90;;;;;;5044908;28;20409;-57
2022/06/17 06:53:33;;;;;;;8.50;6.77;;;34.00;99.90;;;;;;5046712;28;20778;-57
2022/06/17 06:55:58;;;;;;;8.10;5.50;;;34.00;99.90;;;;;;5053849;28;20459;-57
2022/06/17 06:58:26;;;;;;;8.67;3.67;;;34.20;99.90;;;;;;5050895;28;20410;-54
2022/06/17 07:00:56;;;;;;;8.90;3.40;;;34.70;99.90;;;;;;5048777;28;20625;-55
2022/06/17 07:03:24;;;;;;;7.85;3.42;;;34.60;99.90;;;;;;5049780;28;20394;-56
2022/06/17 07:05:55;;;;;;;8.25;3.50;;;33.80;99.90;;;;;;5047382;28;20401;-56
2022/06/17 07:08:24;;;;;;;9.10;3.40;;;33.90;99.90;;;;;;5051358;28;20401;-57
2022/06/17 07:10:52;;;;;;;7.38;3.28;;;34.10;99.90;;;;;;5050094;28;20435;-56
2022/06/17 07:13:19;;;;;;;6.72;3.30;;;34.00;99.90;;;;;;5028558;28;20397;-57
2022/06/17 07:15:46;;;;;;;7.90;3.40;;;34.30;99.90;;;;;;5044835;28;20440;-59
2022/06/17 07:18:20;;;;;;;7.72;2.88;;;34.20;99.90;;;;;;5046393;28;21549;-57
2022/06/17 07:20:49;;;;;;;10.70;3.67;;;34.80;99.90;;;;;;5048155;28;20401;-56
2022/06/17 07:23:21;;;;;;;10.55;3.75;;;33.90;99.90;;;;;;5045195;28;20418;-57
2022/06/17 07:25:48;;;;;;;7.15;3.17;;;33.00;99.90;;;;;;5044565;28;20415;-57
2022/06/17 07:28:15;;;;;;;7.45;3.42;;;33.70;99.90;;;;;;5045544;28;20435;-57
2022/06/17 07:30:44;;;;;;;8.32;4.10;;;33.90;99.90;;;;;;5042588;28;20492;-55
2022/06/17 07:33:10;;;;;;;9.15;3.38;;;34.60;99.90;;;;;;5045002;28;20397;-57
2022/06/17 07:35:36;;;;;;;8.98;3.97;;;34.30;99.90;;;;;;5046076;28;20409;-57
2022/06/17 07:41:04;;;;;;;7.97;6.30;;;32.80;99.90;;;;;;5004947;28;20412;-57
2022/06/17 07:43:30;;;;;;;10.85;7.30;;;33.00;99.90;;;;;;5037357;28;20407;-57
2022/06/17 07:45:55;;;;;;;8.50;6.97;;;33.30;99.90;;;;;;5046788;28;21387;-57
2022/06/17 07:48:22;;;;;;;11.18;7.50;;;33.40;99.90;;;;;;5048362;28;20819;-57
2022/06/17 07:50:48;;;;;;;10.55;7.30;;;33.50;99.90;;;;;;5046515;28;20412;-56
2022/06/17 07:53:14;;;;;;;10.20;7.50;;;32.90;99.90;;;;;;5047416;28;20444;-57
2022/06/17 07:55:41;;;;;;;12.13;7.57;;;33.20;99.90;;;;;;5046212;28;20437;-57
2022/06/17 07:58:08;;;;;;;8.90;7.30;;;33.20;99.90;;;;;;5046953;28;20409;-57
2022/06/17 08:00:38;;;;;;;9.15;6.78;;;33.30;99.90;;;;;;5038307;28;20937;-58
2022/06/17 08:03:04;;;;;;;8.63;6.70;;;32.70;99.90;;;;;;5048906;28;20751;-56
2022/06/17 08:05:31;;;;;;;7.90;6.50;;;31.90;99.90;;;;;;5043687;28;20405;-57
2022/06/17 08:07:58;;;;;;;9.35;6.55;;;31.90;99.90;;;;;;5029155;28;20899;-57
2022/06/17 08:10:27;;;;;;;8.50;7.03;;;31.40;99.90;;;;;;5048586;28;20388;-57
2022/06/17 08:12:53;;;;;;;9.18;6.47;;;31.70;99.90;;;;;;5045893;28;20393;-57
2022/06/17 08:15:20;;;;;;;8.30;6.30;;;32.10;99.90;;;;;;5047587;28;20408;-57
2022/06/17 08:17:46;;;;;;;10.80;6.50;;;32.70;99.90;;;;;;5044429;28;20858;-57
2022/06/17 08:20:22;;;;;;;8.65;6.90;;;32.20;99.90;;;;;;5028669;28;20409;-57
2022/06/17 08:22:48;;;;;;;11.20;6.93;;;31.90;99.90;;;;;;5037701;28;20441;-57
2022/06/17 08:25:15;;;;;;;9.80;6.70;;;32.30;99.90;;;;;;5045478;28;20439;-57
2022/06/17 08:27:46;;;;;;;9.00;6.10;;;32.30;99.90;;;;;;5045445;28;20410;-57
2022/06/17 08:30:12;;;;;;;9.27;6.20;;;33.50;99.90;;;;;;5047760;28;20446;-57
2022/06/17 08:32:48;;;;;;;7.72;6.13;;;34.60;99.90;;;;;;5044950;28;20401;-57
2022/06/17 08:35:23;;;;;;;8.93;4.05;;;34.70;99.90;;;;;;5048369;28;20401;-57
2022/06/17 08:37:53;;;;;;;6.70;3.40;;;35.10;99.90;;;;;;5045663;28;20496;-57
2022/06/17 08:40:38;;;;;;;7.55;3.50;;;35.30;99.90;;;;;;5048779;28;20488;-57
2022/06/17 08:43:45;;;;;;;11.65;4.10;;;35.20;99.90;;;;;;5039493;28;20431;-55
2022/06/17 08:46:44;;;;;;;10.20;4.00;;;35.70;99.90;;;;;;5047922;28;20506;-55
2022/06/17 08:49:37;;;;;;;9.35;4.72;;;36.40;1.00;;;;;;5052593;28;20389;-60
2022/06/17 08:52:21;;;;;;;8.52;5.82;;;36.00;99.90;;;;;;5047630;28;20555;-60
2022/06/17 08:54:56;;;;;;;7.85;4.18;;;36.80;99.90;;;;;;5046540;28;20394;-56
2022/06/17 08:57:28;;;;;;;9.63;6.40;;;36.60;99.90;;;;;;5050632;28;20408;-56
2022/06/17 09:00:15;;;;;;;7.45;4.90;;;37.40;99.90;;;;;;5049854;28;20834;-56
2022/06/17 09:02:43;;;;;;;7.05;3.65;;;37.70;99.90;;;;;;5059779;28;20477;-56
2022/06/17 09:05:43;;;;;;;11.00;7.65;;;37.40;99.90;;;;;;5068526;28;21127;-56
2022/06/17 09:08:46;;;;;;;10.07;8.95;;;37.50;99.90;;;;;;5037226;28;20396;-57
2022/06/17 09:11:32;;;;;;;10.18;7.90;;;38.20;99.90;;;;;;5025014;28;20822;-57
2022/06/17 09:14:14;;;;;;;7.25;3.65;;;39.10;99.90;;;;;;5043963;28;20393;-56
2022/06/17 09:16:48;;;;;;;8.40;3.40;;;38.70;99.90;;;;;;5042580;28;20402;-57
2022/06/17 09:19:25;;;;;;;7.60;4.40;;;38.60;99.90;;;;;;5042287;28;20413;-56
2022/06/17 09:21:53;;;;;;;7.80;4.00;;;38.70;99.90;;;;;;5025232;28;20397;-56
2022/06/17 09:24:27;;;;;;;7.78;4.03;;;38.40;99.90;;;;;;5042395;28;20415;-56
2022/06/17 09:27:01;;;;;;;11.60;8.38;;;37.20;99.90;;;;;;5041125;28;20667;-57
2022/06/17 09:29:45;;;;;;;9.23;6.50;;;37.10;99.90;;;;;;5048752;28;20392;-56
2022/06/17 09:32:16;;;;;;;8.40;4.50;;;38.00;99.90;;;;;;5047985;28;20732;-57
2022/06/17 09:34:51;;;;;;;6.85;3.30;;;39.20;99.90;;;;;;5045601;28;20613;-57
2022/06/17 09:37:39;;;;;;;6.80;3.60;;;39.20;99.90;;;;;;5048467;28;20398;-56
2022/06/17 09:40:21;;;;;;;8.30;3.60;;;37.10;99.90;;;;;;5046710;28;20759;-56
2022/06/17 09:43:02;;;;;;;6.43;3.50;;;36.20;99.90;;;;;;5048077;28;20382;-57
2022/06/17 09:45:38;;;;;;;9.35;3.80;;;35.30;99.90;;;;;;5047633;28;20420;-57
2022/06/17 09:48:34;;;;;;;7.82;5.10;;;34.60;99.90;;;;;;5045256;28;20409;-57
2022/06/17 09:51:29;;;;;;;6.30;3.20;;;35.20;99.90;;;;;;5027605;28;20735;-57
2022/06/17 09:54:04;;;;;;;9.77;3.42;;;36.70;99.90;;;;;;5045256;28;20718;-57
2022/06/17 09:56:59;;;;;;;8.30;3.17;;;37.10;99.90;;;;;;5050674;28;20397;-57
2022/06/17 09:59:34;;;;;;;7.53;3.33;;;36.40;99.90;;;;;;5046166;28;20412;-57
2022/06/17 10:02:23;;;;;;;7.05;2.90;;;36.70;99.90;;;;;;5048297;28;20439;-57
2022/06/17 10:04:54;;;;;;;7.80;3.20;;;36.20;99.90;;;;;;5045811;28;20381;-57
2022/06/17 10:07:40;;;;;;;6.90;3.50;;;35.80;99.90;;;;;;5031460;28;20397;-57
2022/06/17 10:10:54;;;;;;;6.00;2.70;;;36.70;99.90;;;;;;5049220;28;20893;-57
2022/06/17 10:13:40;;;;;;;7.78;3.13;;;36.60;99.90;;;;;;4951085;29;20509;-57
2022/06/17 10:19:21;;;;;;;8.93;3.20;;;36.90;99.90;;;;;;5051415;28;20404;-57
2022/06/17 10:22:33;;;;;;;8.50;3.25;;;36.60;99.90;;;;;;5049646;28;20758;-57
2022/06/17 10:25:05;;;;;;;9.18;7.00;;;35.40;99.90;;;;;;5031487;28;20856;-57
2022/06/17 10:28:03;;;;;;;9.27;6.45;;;35.30;99.90;;;;;;5050684;28;20511;-57
2022/06/17 10:30:51;;;;;;;11.30;7.20;;;35.40;99.90;;;;;;5033596;28;20451;-56
2022/06/17 10:33:18;;;;;;;10.60;7.70;;;35.50;99.90;;;;;;5051261;28;20859;-56
2022/06/17 10:35:46;;;;;;;10.90;6.18;;;34.70;99.90;;;;;;5050782;28;20389;-57
2022/06/17 10:38:21;;;;;;;8.20;6.55;;;33.80;99.90;;;;;;5051624;28;20420;-56
2022/06/17 10:40:48;;;;;;;9.85;7.30;;;32.70;99.90;;;;;;5048840;28;20492;-56
2022/06/17 10:43:18;;;;;;;8.27;7.38;;;31.70;99.90;;;;;;5046883;28;20478;-56
2022/06/17 10:45:44;;;;;;;7.90;6.78;;;31.30;99.90;;;;;;5048255;28;20401;-57
2022/06/17 10:48:15;;;;;;;8.57;7.10;;;30.90;99.90;;;;;;5050240;28;20401;-56
2022/06/17 10:50:41;;;;;;;7.00;6.25;;;30.70;99.90;;;;;;5049995;28;20382;-57
2022/06/17 10:53:16;;;;;;;8.40;5.90;;;30.50;99.90;;;;;;5049747;28;20488;-56
2022/06/17 10:55:50;;;;;;;8.20;7.30;;;30.20;99.90;;;;;;5049786;28;20397;-56
2022/06/17 10:58:21;;;;;;;8.90;7.47;;;30.20;99.90;;;;;;5049446;28;20401;-56
2022/06/17 11:00:58;;;;;;;8.77;7.22;;;30.40;99.90;;;;;;5049814;28;20473;-56
2022/06/17 11:03:33;;;;;;;8.73;6.70;;;29.80;99.90;;;;;;5051065;28;20412;-57
2022/06/17 11:06:07;;;;;;;7.90;7.10;;;30.10;99.90;;;;;;5031947;28;20405;-57
2022/06/17 11:08:52;;;;;;;8.38;6.43;;;30.20;99.90;;;;;;5048660;28;20377;-56
2022/06/17 11:14:26;;;;;;;9.38;5.63;;;30.40;99.90;;;;;;5048479;28;20467;-57
2022/06/17 11:16:52;;;;;;;9.13;6.40;;;30.60;99.90;;;;;;5052193;28;20443;-57
2022/06/17 11:19:22;;;;;;;8.55;6.10;;;31.00;99.90;;;;;;5050323;28;20417;-57
2022/06/17 11:21:52;;;;;;;7.30;5.60;;;30.80;99.90;;;;;;5048386;28;20454;-56
2022/06/17 11:24:30;;;;;;;8.50;6.27;;;30.00;99.90;;;;;;5048652;28;20419;-56
2022/06/17 11:27:21;;;;;;;8.32;5.68;;;30.20;99.90;;;;;;5029072;28;20492;-57
2022/06/17 11:29:51;;;;;;;9.43;6.88;;;30.50;99.90;;;;;;5047059;28;20813;-57
2022/06/17 11:32:20;;;;;;;7.97;6.50;;;30.70;99.90;;;;;;5049975;28;20392;-57
2022/06/17 11:34:57;;;;;;;8.30;6.70;;;31.30;99.90;;;;;;5049494;28;20961;-57
2022/06/17 11:37:29;;;;;;;8.20;7.30;;;31.20;99.90;;;;;;5047438;28;20433;-57
2022/06/17 11:40:15;;;;;;;8.50;7.22;;;30.50;99.90;;;;;;5047685;28;20404;-57
2022/06/17 11:42:48;;;;;;;7.20;6.50;;;30.40;99.90;;;;;;5047839;28;20406;-56
2022/06/17 11:45:22;;;;;;;8.20;6.40;;;30.50;99.90;;;;;;5047644;28;20416;-57
2022/06/17 11:47:52;;;;;;;7.60;5.80;;;31.00;99.90;;;;;;5048070;28;20393;-57
2022/06/17 11:50:25;;;;;;;8.20;5.85;;;31.40;99.90;;;;;;5049670;28;20389;-57
2022/06/17 11:52:59;;;;;;;7.00;5.63;;;31.50;99.90;;;;;;5046822;28;20477;-57
2022/06/17 11:55:29;;;;;;;7.95;6.13;;;31.70;99.90;;;;;;5050835;28;20389;-57
2022/06/17 11:57:55;;;;;;;8.73;6.40;;;31.80;99.90;;;;;;5047039;28;20439;-57
2022/06/17 12:00:38;;;;;;;7.30;6.20;;;31.90;99.90;;;;;;5050086;28;20863;-57
2022/06/17 12:03:04;;;;;;;8.00;6.45;;;31.70;99.90;;;;;;5044673;28;20865;-57
2022/06/17 12:05:32;;;;;;;9.57;7.30;;;31.70;99.90;;;;;;5053016;28;20380;-57
2022/06/17 12:08:24;;;;;;;7.70;6.88;;;31.70;99.90;;;;;;5061322;28;20942;-57
2022/06/17 12:10:58;;;;;;;8.43;6.20;;;31.80;99.90;;;;;;5051102;28;20408;-57
2022/06/17 12:13:41;;;;;;;8.38;5.78;;;31.20;99.90;;;;;;5066175;28;20530;-57
2022/06/17 12:16:38;;;;;;;8.30;6.60;;;30.90;99.90;;;;;;5053112;28;20395;-57
2022/06/17 12:19:08;;;;;;;7.72;6.63;;;30.80;99.90;;;;;;5064279;28;20423;-57
2022/06/17 12:21:37;;;;;;;7.35;6.55;;;31.00;99.90;;;;;;5050362;28;20944;-56
2022/06/17 12:24:30;;;;;;;7.07;5.47;;;31.00;99.90;;;;;;5056429;28;20416;-56
2022/06/17 12:27:26;;;;;;;6.80;6.10;;;31.50;99.90;;;;;;5052464;28;21004;-56
2022/06/17 12:29:55;;;;;;;8.60;5.68;;;32.00;99.90;;;;;;5047885;28;20401;-56
2022/06/17 12:32:43;;;;;;;8.60;6.30;;;32.00;99.90;;;;;;5041842;28;20393;-56
2022/06/17 12:35:25;;;;;;;6.65;5.50;;;32.20;99.90;;;;;;5063455;28;20479;-56
2022/06/17 12:38:18;;;;;;;8.15;5.70;;;32.10;99.90;;;;;;5042422;28;20910;-56
2022/06/17 12:41:05;;;;;;;8.30;5.72;;;32.00;99.90;;;;;;5044867;28;20416;-56
2022/06/17 12:43:41;;;;;;;9.73;5.38;;;31.80;99.90;;;;;;5044330;28;20404;-56
2022/06/17 12:46:22;;;;;;;6.60;5.90;;;31.70;99.90;;;;;;5041064;28;21091;-56
2022/06/17 12:53:14;;;;;;;8.50;6.10;;;31.70;99.90;;;;;;5047157;28;20393;-56
2022/06/17 12:55:07;;;;;;;7.20;6.35;;;31.80;99.90;;;;;;5042818;28;20437;-56
2022/06/17 12:57:56;;;;;;;9.30;6.20;;;31.90;99.90;;;;;;5047289;28;20404;-56
2022/06/17 13:00:33;;;;;;;6.90;6.20;;;32.00;99.90;;;;;;5045389;28;20874;-56
2022/06/17 13:03:23;;;;;;;8.52;5.70;;;32.20;99.90;;;;;;5040616;28;20911;-55
2022/06/17 13:05:49;;;;;;;7.28;6.05;;;32.80;99.90;;;;;;5044487;28;20413;-56
2022/06/17 13:08:47;;;;;;;7.10;5.68;;;32.00;99.90;;;;;;5048198;28;21350;-56
2022/06/17 13:11:32;;;;;;;7.38;6.57;;;31.90;99.90;;;;;;5045682;28;20897;-56
2022/06/17 13:14:27;;;;;;;9.10;6.30;;;31.50;99.90;;;;;;5043355;28;20665;-56
2022/06/17 13:17:18;;;;;;;6.60;5.20;;;31.70;99.90;;;;;;5044446;28;20394;-56
2022/06/17 13:19:55;;;;;;;6.40;5.50;;;31.80;99.90;;;;;;5046952;28;20898;-56
2022/06/17 13:22:32;;;;;;;8.40;5.47;;;31.90;99.90;;;;;;5022789;28;20462;-56
2022/06/17 13:25:26;;;;;;;8.52;4.70;;;31.80;99.90;;;;;;5041303;28;20424;-56
2022/06/17 13:27:55;;;;;;;6.82;5.35;;;31.70;99.90;;;;;;5043342;28;20478;-56
2022/06/17 13:30:27;;;;;;;6.80;5.10;;;31.50;99.90;;;;;;5046374;28;20393;-56
2022/06/17 13:32:59;;;;;;;7.00;5.20;;;31.50;99.90;;;;;;5042802;28;20463;-56
2022/06/17 13:35:33;;;;;;;8.10;5.70;;;31.60;99.90;;;;;;5045502;28;20508;-56
2022/06/17 13:38:05;;;;;;;7.38;4.82;;;31.60;99.90;;;;;;5043841;28;20502;-56